createdAt,value
2018-12-30T00:03:42.636Z,4.60
2018-12-30T00:09:06.488Z,4.50
2018-12-30T00:14:31.075Z,4.30
2018-12-30T00:19:55.484Z,4.10
2018-12-30T00:25:23.269Z,4.10
2018-12-30T00:30:50.451Z,4.30
2018-12-30T00:36:14.991Z,4.70
2018-12-30T00:41:42.767Z,5.00
2018-12-30T00:47:06.730Z,5.00
2018-12-30T00:52:31.062Z,5.10
2018-12-30T00:57:59.163Z,5.20
2018-12-30T01:03:23.491Z,5.20
2018-12-30T01:08:47.821Z,5.40
2018-12-30T01:14:12.408Z,5.30
2018-12-30T01:19:36.778Z,5.30
2018-12-30T01:25:01.146Z,5.30
2018-12-30T01:30:25.783Z,5.30
2018-12-30T01:35:53.455Z,5.40
2018-12-30T01:41:17.927Z,5.50
2018-12-30T01:44:00.279Z,5.50
2018-12-30T01:46:44.594Z,5.50
2018-12-30T01:55:06.576Z,5.60
2018-12-30T02:00:30.637Z,5.60
2018-12-30T02:05:55.208Z,5.60
2018-12-30T02:11:19.471Z,5.60
2018-12-30T02:16:46.615Z,5.20
2018-12-30T02:22:10.635Z,5.10
2018-12-30T02:27:37.939Z,5.00
2018-12-30T02:33:01.432Z,5.00
2018-12-30T02:38:25.771Z,5.10
2018-12-30T02:43:49.768Z,5.10
2018-12-30T02:49:17.286Z,5.00
2018-12-30T02:54:41.716Z,5.00
2018-12-30T03:00:06.143Z,5.00
2018-12-30T03:05:30.123Z,5.00
2018-12-30T03:10:54.558Z,5.00
2018-12-30T03:16:21.964Z,5.00
2018-12-30T03:21:46.220Z,4.90
2018-12-30T03:27:10.807Z,4.90
2018-12-30T03:32:35.122Z,4.80
2018-12-30T03:37:59.511Z,4.70
2018-12-30T03:43:23.948Z,4.70
2018-12-30T03:48:48.079Z,4.70
2018-12-30T03:54:12.348Z,4.70
2018-12-30T03:59:36.407Z,4.70
2018-12-30T04:05:01.044Z,4.60
2018-12-30T04:10:25.103Z,4.50
2018-12-30T04:15:49.648Z,4.40
2018-12-30T04:21:14.327Z,4.50
2018-12-30T04:26:38.770Z,4.50
2018-12-30T04:32:05.836Z,4.60
2018-12-30T04:37:30.174Z,4.60
2018-12-30T04:42:53.653Z,4.50
2018-12-30T04:48:20.028Z,4.70
2018-12-30T04:53:44.532Z,4.60
2018-12-30T04:56:27.000Z,4.60
2018-12-30T04:59:08.339Z,4.60
2018-12-30T05:04:32.695Z,4.60
2018-12-30T05:09:57.167Z,4.70
2018-12-30T05:15:21.303Z,4.90
2018-12-30T05:20:45.793Z,5.00
2018-12-30T05:23:29.313Z,5.00
2018-12-30T05:26:10.844Z,5.00
2018-12-30T05:34:30.232Z,5.00
2018-12-30T05:39:54.627Z,5.00
2018-12-30T05:45:19.109Z,5.00
2018-12-30T05:50:43.341Z,5.20
2018-12-30T05:56:07.763Z,5.20
2018-12-30T06:01:31.719Z,5.30
2018-12-30T06:06:56.183Z,5.30
2018-12-30T06:12:22.871Z,5.30
2018-12-30T06:17:52.618Z,5.50
2018-12-30T06:23:16.915Z,5.50
2018-12-30T06:28:41.344Z,5.50
2018-12-30T06:34:05.183Z,5.50
2018-12-30T06:39:29.742Z,5.40
2018-12-30T06:44:54.083Z,5.40
2018-12-30T06:50:18.475Z,5.60
2018-12-30T06:55:42.605Z,5.60
2018-12-30T07:01:06.197Z,5.60
2018-12-30T07:06:30.642Z,5.70
2018-12-30T07:11:55.119Z,5.70
2018-12-30T07:14:37.308Z,5.60
2018-12-30T07:17:18.810Z,5.60
2018-12-30T07:22:46.279Z,5.70
2018-12-30T07:28:13.691Z,5.60
2018-12-30T07:33:38.080Z,5.60
2018-12-30T07:39:02.251Z,5.60
2018-12-30T07:41:50.727Z,5.60
2018-12-30T07:44:34.951Z,5.60
2018-12-30T07:49:59.939Z,5.70
2018-12-30T07:55:27.219Z,5.70
2018-12-30T08:00:51.782Z,5.70
2018-12-30T08:06:16.346Z,5.70
2018-12-30T08:11:40.696Z,5.90
2018-12-30T08:14:22.767Z,5.90
2018-12-30T08:17:03.872Z,5.90
2018-12-30T08:22:27.405Z,6.00
2018-12-30T08:27:51.872Z,6.10
2018-12-30T08:33:18.423Z,5.90
2018-12-30T08:38:41.948Z,5.80
2018-12-30T08:43:54.624Z,5.90
2018-12-30T08:46:43.347Z,5.80
2018-12-30T08:49:27.368Z,5.70
2018-12-30T08:54:52.339Z,5.60
2018-12-30T09:00:16.946Z,5.70
2018-12-30T09:05:40.256Z,5.80
2018-12-30T09:11:04.730Z,5.90
2018-12-30T09:16:28.819Z,6.10
2018-12-30T09:21:56.271Z,6.30
2018-12-30T09:27:19.767Z,6.20
2018-12-30T09:30:05.139Z,6.20
2018-12-30T09:32:46.654Z,6.20
2018-12-30T09:38:13.763Z,6.40
2018-12-30T09:43:42.220Z,6.60
2018-12-30T09:49:09.635Z,6.80
2018-12-30T09:54:33.952Z,6.70
2018-12-30T10:00:00.246Z,6.50
2018-12-30T10:05:24.383Z,6.60
2018-12-30T10:16:20.564Z,6.90
2018-12-30T10:21:44.827Z,7.00
2018-12-30T10:27:09.118Z,6.90
2018-12-30T10:32:33.361Z,7.00
2018-12-30T10:37:57.771Z,6.90
2018-12-30T10:43:22.253Z,7.00
2018-12-30T10:48:46.379Z,7.10
2018-12-30T10:54:10.700Z,7.10
2018-12-30T10:59:34.038Z,7.10
2018-12-30T11:05:00.690Z,7.20
2018-12-30T11:10:24.495Z,7.10
2018-12-30T11:15:48.440Z,7.10
2018-12-30T11:21:15.704Z,7.20
2018-12-30T11:26:39.075Z,7.10
2018-12-30T11:32:06.429Z,7.00
2018-12-30T11:37:30.855Z,6.90
2018-12-30T11:42:55.403Z,6.80
2018-12-30T11:48:19.512Z,6.60
2018-12-30T11:51:01.874Z,6.60
2018-12-30T11:53:43.477Z,6.50
2018-12-30T11:59:09.034Z,6.50
2018-12-30T12:04:34.081Z,6.50
2018-12-30T12:10:00.603Z,6.40
2018-12-30T12:15:25.191Z,6.30
2018-12-30T12:20:49.792Z,6.30
2018-12-30T12:26:14.012Z,6.20
2018-12-30T12:31:38.116Z,6.20
2018-12-30T12:37:02.649Z,6.20
2018-12-30T12:42:26.311Z,6.20
2018-12-30T12:47:50.856Z,6.10
2018-12-30T12:53:15.427Z,5.90
2018-12-30T12:58:39.583Z,5.80
2018-12-30T13:04:03.826Z,5.60
2018-12-30T13:09:27.097Z,5.50
2018-12-30T13:14:50.682Z,5.50
2018-12-30T13:23:12.293Z,5.20
2018-12-30T13:28:36.641Z,5.10
2018-12-30T13:34:00.160Z,5.00
2018-12-30T13:39:24.268Z,5.00
2018-12-30T13:42:06.562Z,4.90
2018-12-30T13:44:47.490Z,4.90
2018-12-30T13:50:11.196Z,4.90
2018-12-30T13:55:35.333Z,4.90
2018-12-30T14:00:59.510Z,4.90
2018-12-30T14:06:22.760Z,4.90
2018-12-30T14:11:47.212Z,4.90
2018-12-30T14:17:14.397Z,4.90
2018-12-30T14:22:41.732Z,5.00
2018-12-30T14:28:05.159Z,5.10
2018-12-30T14:33:29.255Z,5.10
2018-12-30T14:38:56.431Z,4.90
2018-12-30T14:44:08.969Z,4.90
2018-12-30T14:46:55.767Z,4.80
2018-12-30T14:49:44.508Z,4.70
2018-12-30T14:55:08.884Z,4.70
2018-12-30T15:00:33.403Z,4.80
2018-12-30T15:05:46.282Z,4.70
2018-12-30T15:08:35.006Z,4.70
2018-12-30T15:11:16.212Z,4.70
2018-12-30T15:16:39.933Z,4.70
2018-12-30T15:22:04.650Z,4.70
2018-12-30T15:27:28.955Z,4.80
2018-12-30T15:32:52.277Z,4.80
2018-12-30T15:38:16.829Z,4.80
2018-12-30T15:43:40.977Z,4.70
2018-12-30T15:49:05.245Z,4.60
2018-12-30T15:54:29.563Z,4.60
2018-12-30T15:59:53.691Z,4.60
2018-12-30T16:05:20.838Z,4.60
2018-12-30T16:10:48.234Z,4.60
2018-12-30T16:16:12.483Z,4.60
2018-12-30T16:21:35.723Z,4.70
2018-12-30T16:26:59.893Z,4.70
2018-12-30T16:32:26.447Z,4.80
2018-12-30T16:37:50.702Z,4.80
2018-12-30T16:43:15.097Z,4.90
2018-12-30T16:48:39.696Z,4.90
2018-12-30T16:54:07.303Z,4.90
2018-12-30T16:59:31.549Z,4.90
2018-12-30T17:04:59.008Z,4.90
2018-12-30T17:10:25.660Z,4.90
2018-12-30T17:15:49.466Z,4.70
2018-12-30T17:21:19.844Z,4.70
2018-12-30T17:26:43.871Z,4.80
2018-12-30T17:32:08.196Z,4.70
2018-12-30T17:37:35.653Z,4.70
2018-12-30T17:42:59.918Z,4.70
2018-12-30T17:48:30.517Z,4.70
2018-12-30T17:51:12.582Z,4.70
2018-12-30T17:53:54.123Z,4.60
2018-12-30T17:59:21.655Z,4.60
2018-12-30T18:04:48.955Z,4.70
2018-12-30T18:10:16.342Z,4.70
2018-12-30T18:15:40.702Z,4.70
2018-12-30T18:21:05.036Z,4.70
2018-12-30T18:26:29.393Z,4.80
2018-12-30T18:31:59.702Z,4.90
2018-12-30T18:37:23.988Z,4.90
2018-12-30T18:42:51.320Z,4.90
2018-12-30T18:48:17.712Z,4.70
2018-12-30T18:53:44.929Z,4.70
2018-12-30T18:59:09.166Z,4.70
2018-12-30T19:04:33.472Z,4.80
2018-12-30T19:09:57.447Z,4.80
2018-12-30T19:15:21.541Z,4.80
2018-12-30T19:20:49.173Z,4.60
2018-12-30T19:26:16.626Z,4.80
2018-12-30T19:31:40.897Z,4.90
2018-12-30T19:37:04.688Z,4.70
2018-12-30T19:42:33.376Z,4.60
2018-12-30T19:47:58.255Z,4.60
2018-12-30T19:53:22.596Z,4.60
2018-12-30T19:58:52.352Z,4.50
2018-12-30T20:04:16.627Z,4.60
2018-12-30T20:09:40.964Z,4.50
2018-12-30T20:12:23.339Z,4.40
2018-12-30T20:15:07.631Z,4.30
2018-12-30T20:20:37.053Z,4.20
2018-12-30T20:26:01.402Z,4.00
2018-12-30T20:31:33.876Z,3.70
2018-12-30T20:37:00.787Z,3.60
2018-12-30T20:42:25.129Z,3.50
2018-12-30T20:47:55.311Z,3.40
2018-12-30T20:53:19.420Z,3.40
2018-12-30T20:58:43.768Z,3.40
2018-12-30T21:04:07.159Z,3.40
2018-12-30T21:09:30.410Z,3.30
2018-12-30T21:14:57.563Z,3.30
2018-12-30T21:20:21.633Z,3.30
2018-12-30T21:25:46.243Z,3.60
2018-12-30T21:31:10.626Z,3.80
2018-12-30T21:36:34.994Z,3.90
2018-12-30T21:41:59.445Z,3.90
2018-12-30T21:47:24.089Z,4.00
2018-12-30T21:52:48.491Z,4.10
2018-12-30T21:58:15.842Z,4.20
2018-12-30T22:03:39.992Z,4.20
2018-12-30T22:09:07.267Z,4.20
2018-12-30T22:14:37.786Z,4.30
2018-12-30T22:20:02.314Z,4.20
2018-12-30T22:25:26.874Z,4.20
2018-12-30T22:30:50.997Z,4.10
2018-12-30T22:36:18.651Z,4.10
2018-12-30T22:41:43.039Z,4.10
2018-12-30T22:47:07.499Z,4.20
2018-12-30T22:52:35.012Z,4.20
2018-12-30T22:57:59.458Z,4.20
2018-12-30T23:03:24.087Z,4.20
2018-12-30T23:08:48.318Z,4.20
2018-12-30T23:14:12.587Z,4.20
2018-12-30T23:19:42.242Z,4.20
2018-12-30T23:25:06.024Z,4.20
2018-12-30T23:30:30.206Z,4.20
2018-12-30T23:35:54.799Z,4.20
2018-12-30T23:41:19.139Z,4.20
2018-12-30T23:46:43.666Z,4.10
2018-12-30T23:52:08.091Z,4.10
2018-12-30T23:57:32.550Z,4.10
